LFKF/FSC METAR and TAF weather

Enter ICAO airport designator
Station Type Date Time Source
LFKF METAR 2021/09/28 17:00 UTC NOAA

LFKF 281700Z AUTO 19005KT 160V230 CAVOK 24/18 Q1017 NOSIG


Station Type Date Time Source
LFKF Decoded METAR 2021/09/28 17:00 UTC NOAA

Figari, France (LFKF) 41-30N 009-06E 23M
Sep 28, 2021 - 01:00 PM EDT / 2021.09.28 1700 UTC
Wind: from the S (190 degrees) at 6 MPH (5 KT) (direction variable):0
Visibility: greater than 7 mile(s):0
Temperature: 75 F (24 C)
Dew Point: 64 F (18 C)
Relative Humidity: 69%
Pressure (altimeter): 30.03 in. Hg (1017 hPa)
ob: LFKF 281700Z AUTO 19005KT 160V230 CAVOK 24/18 Q1017 NOSIG
cycle: 17

Station Type Date Time Source
LFKF TAF 2021/09/28 15:44 UTC NOAA

TAF LFKF 281400Z 2815/2915 25010KT 9999 FEW030
BECMG 2907/2909 26012KT
TEMPO 2911/2915 29017G30KT

Example: see airport list